Time;durP1;ratioP1;P1;durP2;ratioP2;P2;SDS_P1;SDS_P2;PMS_P1;PMS_P2;Temp;Humidity;BMP_temperature;BMP_pressure;BME280_temperature;BME280_humidity;BME280_pressure;Samples;Min_cycle;Max_cycle;Signal;HPM_P1;HPM_P2
2022/05/20 00:01:12;;;;;;;16.50;12.40;;;;;;;16.50;100.00;101310.88;107895;1278;75230;-84
2022/05/20 00:03:42;;;;;;;14.90;10.10;;;;;;;16.50;100.00;101314.04;107907;1278;72640;-84
2022/05/20 00:06:09;;;;;;;19.90;14.90;;;;;;;16.46;100.00;101313.74;107926;1277;71691;-84
2022/05/20 00:08:38;;;;;;;15.30;11.90;;;;;;;16.43;100.00;101313.97;107851;1277;64447;-84
2022/05/20 00:11:06;;;;;;;19.50;14.00;;;;;;;16.40;100.00;101316.59;108001;1277;62768;-84
2022/05/20 00:13:34;;;;;;;21.50;16.70;;;;;;;16.38;100.00;101315.09;107967;1278;76022;-84
2022/05/20 00:16:10;;;;;;;22.50;16.20;;;;;;;16.36;100.00;101313.23;108011;1277;72395;-84
2022/05/20 00:18:44;;;;;;;17.40;12.60;;;;;;;16.34;100.00;101305.39;107679;1278;72915;-84
2022/05/20 00:21:27;;;;;;;16.90;12.50;;;;;;;16.33;100.00;101303.90;107961;1277;62320;-84
2022/05/20 00:23:58;;;;;;;20.90;15.80;;;;;;;16.31;100.00;101299.34;107893;1277;61477;-84
2022/05/20 00:26:27;;;;;;;24.60;17.40;;;;;;;16.30;100.00;101293.15;108034;1277;74880;-85
2022/05/20 00:29:06;;;;;;;19.20;15.10;;;;;;;16.29;100.00;101299.18;108075;1277;72529;-84
2022/05/20 00:31:40;;;;;;;35.90;17.70;;;;;;;16.29;100.00;101292.02;107771;1279;72717;-84
2022/05/20 00:34:12;;;;;;;25.80;19.80;;;;;;;16.31;100.00;101292.52;107842;1277;63668;-84
2022/05/20 00:36:39;;;;;;;23.30;18.00;;;;;;;16.33;100.00;101298.88;107886;1277;59886;-85
2022/05/20 00:39:06;;;;;;;25.40;18.80;;;;;;;16.36;100.00;101296.25;107902;1278;74891;-84
2022/05/20 00:41:33;;;;;;;13.10;9.40;;;;;;;16.38;100.00;101296.80;107858;1277;72416;-84
2022/05/20 00:44:00;;;;;;;15.80;12.60;;;;;;;16.39;100.00;101296.16;107989;1277;72966;-84
2022/05/20 00:46:28;;;;;;;15.70;11.30;;;;;;;16.41;100.00;101292.38;107992;1277;62063;-84
2022/05/20 00:49:00;;;;;;;24.10;17.30;;;;;;;16.42;100.00;101294.35;107797;1279;61340;-84
2022/05/20 00:51:39;;;;;;;25.00;16.80;;;;;;;16.43;100.00;101296.76;107583;1279;75882;-85
2022/05/20 00:54:27;;;;;;;16.70;12.30;;;;;;;16.44;100.00;101297.70;107832;1279;70620;-84
2022/05/20 00:57:07;;;;;;;22.50;18.00;;;;;;;16.45;100.00;101301.09;107598;1279;74331;-84
2022/05/20 01:00:10;;;;;;;23.10;15.50;;;;;;;16.45;100.00;101298.08;108123;1279;63248;-84
2022/05/20 01:02:38;;;;;;;22.90;17.20;;;;;;;16.43;100.00;101293.38;108157;1278;60680;-85
2022/05/20 01:05:25;;;;;;;23.60;14.20;;;;;;;16.40;100.00;101288.58;108169;1279;76152;-85
2022/05/20 01:08:00;;;;;;;30.20;20.80;;;;;;;16.36;100.00;101301.04;108047;1279;71310;-84
2022/05/20 01:10:27;;;;;;;21.90;16.40;;;;;;;16.33;100.00;101302.08;107576;1281;73937;-85
2022/05/20 01:12:57;;;;;;;19.20;14.90;;;;;;;16.31;100.00;101303.23;107650;1279;62326;-85
2022/05/20 01:15:24;;;;;;;21.10;14.40;;;;;;;16.29;100.00;101305.45;107780;1279;60041;-86
2022/05/20 01:17:53;;;;;;;31.70;22.20;;;;;;;16.27;100.00;101304.23;107891;1279;74723;-85
2022/05/20 01:20:27;;;;;;;25.00;18.90;;;;;;;16.25;100.00;101304.31;107772;1279;70494;-85
2022/05/20 01:22:56;;;;;;;21.10;16.30;;;;;;;16.24;100.00;101301.63;107855;1279;73480;-85
2022/05/20 01:25:23;;;;;;;29.10;19.80;;;;;;;16.22;100.00;101306.86;107735;1279;59893;-85
2022/05/20 01:27:52;;;;;;;33.70;20.30;;;;;;;16.21;100.00;101307.34;107443;1280;59872;-85
2022/05/20 01:30:22;;;;;;;26.90;18.60;;;;;;;16.20;100.00;101308.57;107515;1280;77289;-85
2022/05/20 01:32:50;;;;;;;20.50;15.30;;;;;;;16.19;100.00;101308.34;107580;1279;72392;-85
2022/05/20 01:35:25;;;;;;;23.70;17.50;;;;;;;16.15;100.00;101306.73;107519;1281;75382;-85
2022/05/20 01:37:59;;;;;;;27.80;19.60;;;;;;;16.13;100.00;101311.08;107584;1280;62224;-85
2022/05/20 01:40:53;;;;;;;28.50;19.10;;;;;;;16.09;100.00;101312.33;107535;1281;60555;-85
2022/05/20 01:43:51;;;;;;;20.40;13.50;;;;;;;16.03;100.00;101314.10;107658;1271;75056;-85
2022/05/20 01:49:16;;;;;;;26.20;15.90;;;;;;;15.92;100.00;101318.59;107576;1281;73073;-85
2022/05/20 01:51:58;;;;;;;28.90;20.80;;;;;;;15.85;100.00;101321.06;107513;1282;62213;-84
2022/05/20 01:54:37;;;;;;;27.90;16.00;;;;;;;15.77;100.00;101327.96;107454;1281;61835;-84
2022/05/20 01:57:27;;;;;;;26.20;17.30;;;;;;;15.68;100.00;101330.60;107433;1281;75217;-84
2022/05/20 02:00:18;;;;;;;22.90;17.40;;;;;;;15.60;100.00;101328.60;107478;1281;71542;-84
2022/05/20 02:03:11;;;;;;;22.30;14.90;;;;;;;15.52;100.00;101324.66;107494;1281;74064;-84
2022/05/20 02:06:11;;;;;;;23.80;15.20;;;;;;;15.41;100.00;101324.20;107543;1281;63240;-84
2022/05/20 02:08:58;;;;;;;24.20;14.50;;;;;;;15.30;100.00;101324.95;107266;1282;60423;-84
2022/05/20 02:11:36;;;;;;;21.50;14.70;;;;;;;15.17;100.00;101324.50;107596;1281;76323;-83
2022/05/20 02:14:22;;;;;;;27.00;17.90;;;;;;;15.08;100.00;101327.27;107486;1281;71333;-84
2022/05/20 02:17:13;;;;;;;19.50;13.90;;;;;;;14.99;100.00;101323.55;107524;1281;74062;-84
2022/05/20 02:19:48;;;;;;;21.30;15.60;;;;;;;14.89;100.00;101318.19;107662;1281;63944;-84
2022/05/20 02:22:27;;;;;;;26.50;15.40;;;;;;;14.81;100.00;101323.37;107423;1282;61341;-83
2022/05/20 02:25:06;;;;;;;23.40;15.00;;;;;;;14.74;100.00;101316.82;107240;1284;74097;-84
2022/05/20 02:27:52;;;;;;;27.60;16.40;;;;;;;14.65;100.00;101317.49;107351;1282;70394;-84
2022/05/20 02:30:24;;;;;;;27.10;18.00;;;;;;;14.58;100.00;101324.30;107509;1281;74435;-83
2022/05/20 02:33:11;;;;;;;28.10;18.60;;;;;;;14.50;100.00;101322.64;107466;1281;62263;-84
2022/05/20 02:35:39;;;;;;;23.90;16.60;;;;;;;14.42;100.00;101320.05;107520;1281;60480;-83
2022/05/20 02:38:23;;;;;;;31.10;20.00;;;;;;;14.34;100.00;101323.21;107528;1281;74973;-83
2022/05/20 02:40:55;;;;;;;25.30;15.00;;;;;;;14.28;100.00;101322.66;107314;1282;72689;-83
2022/05/20 02:43:22;;;;;;;30.80;20.70;;;;;;;14.24;100.00;101326.70;107511;1281;73186;-83
2022/05/20 02:45:50;;;;;;;33.80;20.60;;;;;;;14.20;100.00;101323.40;107547;1281;62827;-83
2022/05/20 02:48:20;;;;;;;32.60;20.70;;;;;;;14.18;100.00;101322.05;107526;1281;60340;-83
2022/05/20 02:50:49;;;;;;;44.20;24.60;;;;;;;14.17;100.00;101328.30;107429;1281;74969;-83
2022/05/20 02:53:23;;;;;;;23.40;15.00;;;;;;;14.16;100.00;101327.23;107514;1281;72753;-83
2022/05/20 02:55:53;;;;;;;31.90;20.40;;;;;;;14.17;100.00;101332.95;107673;1280;72997;-83
2022/05/20 03:06:28;;;;;;;33.20;20.10;;;;;;;14.22;100.00;101341.19;107869;1277;72525;-84
2022/05/20 03:08:55;;;;;;;32.30;20.00;;;;;;;14.23;100.00;101343.92;107751;1279;73067;-83
2022/05/20 03:11:21;;;;;;;31.50;20.20;;;;;;;14.24;100.00;101348.08;107695;1277;59745;-82
2022/05/20 03:13:50;;;;;;;25.00;16.10;;;;;;;14.24;100.00;101350.27;107879;1277;61669;-84
2022/05/20 03:16:20;;;;;;;26.40;17.60;;;;;;;14.26;100.00;101348.16;107906;1277;77444;-83
2022/05/20 03:18:48;;;;;;;29.30;19.00;;;;;;;14.26;100.00;101351.73;107836;1279;71895;-83
2022/05/20 03:21:15;;;;;;;33.80;19.00;;;;;;;14.26;100.00;101353.00;108036;1276;74078;-83
2022/05/20 03:23:46;;;;;;;30.60;20.90;;;;;;;14.26;100.00;101359.20;107966;1277;64227;-83
2022/05/20 03:26:22;;;;;;;32.70;21.60;;;;;;;14.25;100.00;101360.77;107971;1277;60327;-83
2022/05/20 03:28:59;;;;;;;25.90;16.90;;;;;;;14.24;100.00;101356.35;107748;1277;75873;-84
2022/05/20 03:31:48;;;;;;;31.80;19.40;;;;;;;14.24;100.00;101361.31;107554;1277;71570;-83
2022/05/20 03:34:20;;;;;;;33.90;20.50;;;;;;;14.25;100.00;101360.20;107846;1277;73445;-83
2022/05/20 03:37:06;;;;;;;33.30;19.50;;;;;;;14.25;100.00;101358.73;107935;1267;165108;-86
2022/05/20 03:39:58;;;;;;;27.80;16.80;;;;;;;14.24;100.00;101359.17;108189;1278;63271;-88
2022/05/20 03:42:28;;;;;;;30.90;20.40;;;;;;;14.24;100.00;101360.89;108300;1279;73717;-86
2022/05/20 03:45:14;;;;;;;33.30;19.40;;;;;;;14.23;100.00;101365.27;108252;1279;71531;-88
2022/05/20 03:48:41;;;;;;;;;;;;;;;;;;;;;
2022/05/20 03:54:29;;;;;;;;;;;;;;;;;;;;;
2022/05/20 03:57:36;;;;;;;36.30;23.70;;;;;;;14.09;100.00;101373.67;108154;1277;74998;-88
2022/05/20 04:00:23;;;;;;;;;;;;;;;14.03;100.00;101380.27;108407;1278;71463;-88
2022/05/20 04:03:37;;;;;;;40.00;23.60;;;;;;;13.97;100.00;101384.49;108291;1281;72959;-86
2022/05/20 04:06:31;;;;;;;40.20;25.20;;;;;;;13.92;100.00;101390.77;108379;1279;61863;-88
2022/05/20 04:09:49;;;;;;;38.30;23.70;;;;;;;13.90;100.00;101393.59;108308;1279;60632;-88
2022/05/20 04:15:32;;;;;;;;;;;;;;;;;;;;;
2022/05/20 04:18:31;;;;;;;30.90;19.40;;;;;;;13.84;100.00;101409.50;108415;1279;75440;-88
2022/05/20 04:23:59;;;;;;;38.40;23.90;;;;;;;13.87;100.00;101417.11;107513;1279;59520;-84
2022/05/20 04:26:25;;;;;;;38.00;21.90;;;;;;;13.90;100.00;101422.12;107671;1279;74974;-84
2022/05/20 04:28:53;;;;;;;38.20;22.20;;;;;;;13.94;100.00;101418.89;107683;1279;70520;-85
2022/05/20 04:31:26;;;;;;;43.90;25.70;;;;;;;13.96;100.00;101422.80;107726;1279;73113;-84
2022/05/20 04:33:53;;;;;;;32.70;21.20;;;;;;;13.98;100.00;101417.83;107663;1279;59747;-84
2022/05/20 04:36:22;;;;;;;37.70;24.70;;;;;;;14.00;100.00;101421.91;107832;1279;61807;-84
2022/05/20 04:38:49;;;;;;;30.40;21.30;;;;;;;14.00;100.00;101426.98;107892;1279;74374;-85
2022/05/20 04:49:45;;;;;;;28.60;19.60;;;;;;;14.19;100.00;101431.38;107752;1279;60228;-84
2022/05/20 04:52:13;;;;;;;34.90;21.30;;;;;;;14.21;100.00;101426.85;107749;1279;75237;-85
2022/05/20 04:57:44;;;;;;;29.00;18.90;;;;;;;14.23;100.00;101425.38;107826;1269;158372;-87
2022/05/20 05:00:55;;;;;;;27.60;18.40;;;;;;;14.25;100.00;101428.13;107950;1279;61759;-85
2022/05/20 05:03:50;;;;;;;28.00;18.20;;;;;;;14.31;99.97;101428.17;107886;1279;60935;-84
2022/05/20 05:06:19;;;;;;;29.90;17.40;;;;;;;14.37;99.66;101435.09;108199;1277;73717;-85
2022/05/20 05:09:13;;;;;;;25.00;17.90;;;;;;;14.44;99.10;101439.83;108239;1278;71432;-86
2022/05/20 05:11:48;;;;;;;19.20;13.70;;;;;;;14.45;98.17;101440.33;108205;1279;72957;-85
2022/05/20 05:14:42;;;;;;;21.60;15.70;;;;;;;14.49;97.62;101443.84;107955;1281;62264;-85
2022/05/20 05:20:34;;;;;;;23.00;15.50;;;;;;;14.56;95.29;101439.83;107420;1281;75620;-85
2022/05/20 05:23:15;;;;;;;23.80;15.70;;;;;;;14.60;94.64;101442.39;107739;1281;73196;-85
2022/05/20 05:26:05;;;;;;;23.80;16.60;;;;;;;14.63;94.67;101444.83;108051;1280;74247;-85
2022/05/20 05:28:31;;;;;;;22.70;15.10;;;;;;;14.67;93.99;101449.33;107837;1281;62188;-85
2022/05/20 05:30:58;;;;;;;18.20;11.40;;;;;;;14.72;93.83;101450.05;107630;1281;60739;-85
2022/05/20 05:33:34;;;;;;;21.60;13.90;;;;;;;14.69;92.70;101440.84;107870;1279;75670;-84
2022/05/20 05:36:14;;;;;;;19.00;11.90;;;;;;;14.71;91.75;101443.21;107683;1281;71821;-85
2022/05/20 05:38:43;;;;;;;16.90;12.70;;;;;;;14.73;91.33;101450.96;107947;1279;74783;-84
2022/05/20 05:41:43;;;;;;;;;;;;;;;;;;;;;
2022/05/20 05:44:14;;;;;;;17.20;12.40;;;;;;;14.88;90.79;101450.46;108065;1279;59701;-83
2022/05/20 05:46:44;;;;;;;16.10;12.30;;;;;;;14.95;89.63;101442.96;108138;1279;75083;-84
2022/05/20 05:49:10;;;;;;;12.60;8.90;;;;;;;14.97;87.06;101444.75;107971;1281;71286;-83
2022/05/20 05:51:43;;;;;;;16.30;11.50;;;;;;;14.98;86.43;101449.98;108090;1279;72943;-85
2022/05/20 05:54:17;;;;;;;15.20;10.80;;;;;;;15.04;87.53;101454.55;107667;1281;63658;-82
2022/05/20 05:56:56;;;;;;;13.90;9.90;;;;;;;15.13;87.50;101451.94;108001;1279;61834;-85
2022/05/20 05:59:29;;;;;;;12.50;8.90;;;;;;;15.24;87.46;101453.60;108073;1280;75044;-85
2022/05/20 06:02:01;;;;;;;13.10;9.90;;;;;;;15.30;85.24;101457.63;107813;1281;71481;-84
2022/05/20 06:04:28;;;;;;;9.70;7.00;;;;;;;15.35;83.57;101461.42;107651;1281;73074;-86
2022/05/20 06:07:03;;;;;;;14.10;10.60;;;;;;;15.33;81.52;101462.23;108170;1279;61497;-84
2022/05/20 06:09:30;;;;;;;13.10;8.00;;;;;;;15.34;81.64;101460.14;107835;1282;61091;-84
2022/05/20 06:11:58;;;;;;;11.70;8.10;;;;;;;15.36;81.27;101466.36;107881;1279;76131;-86
2022/05/20 06:14:24;;;;;;;9.00;7.00;;;;;;;15.35;80.65;101457.02;107758;1281;72080;-84
2022/05/20 06:16:51;;;;;;;11.50;7.00;;;;;;;15.38;81.20;101459.89;107905;1280;72844;-84
2022/05/20 06:19:17;;;;;;;13.30;9.50;;;;;;;15.39;80.47;101459.50;107897;1279;59195;-84
2022/05/20 06:21:44;;;;;;;12.30;9.10;;;;;;;15.43;80.06;101453.73;108105;1280;61680;-84
2022/05/20 06:24:11;;;;;;;12.50;9.60;;;;;;;15.48;79.89;101449.40;108231;1279;76385;-83
2022/05/20 06:26:41;;;;;;;10.00;7.60;;;;;;;15.54;79.56;101448.14;108249;1279;71753;-84
2022/05/20 06:29:08;;;;;;;12.50;8.90;;;;;;;15.53;77.44;101455.55;108251;1279;72940;-82
2022/05/20 06:31:35;;;;;;;9.30;6.90;;;;;;;15.48;77.55;101455.27;107846;1281;62325;-83
2022/05/20 06:34:05;;;;;;;12.10;9.20;;;;;;;15.45;78.24;101458.13;107796;1279;60493;-82
2022/05/20 06:39:51;;;;;;;12.00;10.20;;;;;;;15.51;77.72;101450.48;107899;1281;71144;-84
2022/05/20 06:42:22;;;;;;;9.70;6.10;;;;;;;15.61;77.36;101448.46;107958;1280;72887;-84
2022/05/20 06:44:52;;;;;;;12.40;7.50;;;;;;;15.66;76.63;101441.27;107794;1281;62295;-84
2022/05/20 06:47:19;;;;;;;11.80;8.70;;;;;;;15.67;76.55;101429.35;107765;1281;60364;-84
2022/05/20 06:49:46;;;;;;;7.60;6.60;;;;;;;15.70;75.88;101432.94;107742;1281;75221;-84
2022/05/20 06:52:13;;;;;;;11.70;8.40;;;;;;;15.75;75.57;101443.28;107789;1280;71061;-85
2022/05/20 06:55:03;;;;;;;9.60;6.10;;;;;;;15.79;75.11;101445.72;107944;1279;75946;-84
2022/05/20 06:57:30;;;;;;;9.10;7.00;;;;;;;15.81;74.88;101442.32;107722;1279;62160;-84
2022/05/20 06:59:57;;;;;;;9.10;6.70;;;;;;;15.87;75.03;101439.17;107934;1281;59632;-85
2022/05/20 07:02:26;;;;;;;11.60;7.20;;;;;;;15.94;74.69;101440.33;108200;1280;75024;-85
2022/05/20 07:04:57;;;;;;;12.30;7.60;;;;;;;15.98;74.00;101446.68;108114;1279;72239;-84
2022/05/20 07:07:24;;;;;;;12.20;8.70;;;;;;;16.05;74.26;101447.64;107882;1279;72111;-85
2022/05/20 07:09:51;;;;;;;10.40;7.60;;;;;;;16.08;73.80;101438.90;107787;1281;61264;-86
2022/05/20 07:12:17;;;;;;;11.10;7.70;;;;;;;16.12;73.11;101436.67;107881;1279;60719;-85
2022/05/20 07:14:47;;;;;;;7.50;4.80;;;;;;;16.19;73.35;101430.27;107844;1280;76226;-85
2022/05/20 07:17:20;;;;;;;9.30;6.40;;;;;;;16.28;72.92;101432.63;108258;1280;71897;-85
2022/05/20 07:19:51;;;;;;;8.50;5.90;;;;;;;16.43;72.16;101432.70;107947;1281;72999;-85
2022/05/20 07:22:17;;;;;;;6.80;5.20;;;;;;;16.47;71.37;101429.75;108070;1280;65754;-84
2022/05/20 07:24:47;;;;;;;7.50;6.10;;;;;;;16.52;71.30;101424.67;107775;1281;60657;-83
2022/05/20 07:27:13;;;;;;;7.20;4.80;;;;;;;16.59;69.96;101425.39;107822;1281;76118;-84
2022/05/20 07:29:40;;;;;;;10.90;7.10;;;;;;;16.67;70.15;101422.38;107890;1280;72322;-84
2022/05/20 07:32:07;;;;;;;9.30;5.10;;;;;;;16.78;70.87;101417.10;108167;1279;71911;-83
2022/05/20 07:34:35;;;;;;;10.10;7.30;;;;;;;16.82;69.93;101410.58;108146;1280;63509;-83
2022/05/20 07:37:02;;;;;;;15.10;6.70;;;;;;;16.85;70.13;101401.86;107883;1281;62002;-84
2022/05/20 07:39:29;;;;;;;12.40;8.70;;;;;;;16.95;70.37;101399.09;108168;1279;74973;-84
2022/05/20 07:41:56;;;;;;;8.40;6.50;;;;;;;17.10;70.54;101394.33;108136;1279;73378;-84
2022/05/20 07:44:22;;;;;;;9.70;5.50;;;;;;;17.26;70.22;101388.15;107850;1281;71610;-84
2022/05/20 07:46:49;;;;;;;11.40;8.80;;;;;;;17.36;69.08;101389.16;108096;1280;62992;-84
2022/05/20 07:49:16;;;;;;;8.00;6.40;;;;;;;17.43;68.97;101381.14;107780;1281;61694;-84
2022/05/20 07:51:46;;;;;;;8.30;6.50;;;;;;;17.56;68.91;101379.66;107749;1281;75012;-84
2022/05/20 07:54:25;;;;;;;8.50;6.10;;;;;;;17.64;67.89;101376.89;107789;1281;72675;-84
2022/05/20 07:56:57;;;;;;;9.00;5.40;;;;;;;17.69;67.87;101374.32;108034;1281;72941;-84
2022/05/20 07:59:30;;;;;;;7.60;5.80;;;;;;;17.79;66.93;101370.73;107826;1281;60993;-84
2022/05/20 08:01:57;;;;;;;7.30;5.40;;;;;;;17.89;66.71;101372.20;107784;1281;60641;-84
2022/05/20 08:05:01;;;;;;;9.70;6.90;;;;;;;18.04;66.54;101365.59;107821;1280;75967;-84
2022/05/20 08:07:31;;;;;;;9.30;6.60;;;;;;;18.13;64.88;101353.05;107857;1281;71435;-84
2022/05/20 08:10:12;;;;;;;8.70;5.10;;;;;;;18.22;65.42;101353.41;107880;1281;73107;-84
2022/05/20 08:12:39;;;;;;;12.30;7.60;;;;;;;18.34;65.67;101349.83;107926;1280;61098;-84
2022/05/20 08:15:07;;;;;;;10.40;7.20;;;;;;;18.47;65.44;101341.25;107806;1281;59852;-83
2022/05/20 08:17:36;;;;;;;8.00;5.60;;;;;;;18.63;64.82;101345.75;108106;1281;75623;-84
2022/05/20 08:20:05;;;;;;;9.90;6.20;;;;;;;18.72;63.14;101347.82;108217;1280;72632;-83
2022/05/20 08:22:31;;;;;;;8.10;5.70;;;;;;;18.81;62.38;101345.09;108142;1281;71500;-82
2022/05/20 08:25:00;;;;;;;10.30;6.20;;;;;;;18.80;59.83;101341.73;108071;1280;62336;-82
2022/05/20 08:27:30;;;;;;;11.80;6.90;;;;;;;18.80;61.46;101340.67;108096;1280;60527;-86
2022/05/20 08:30:03;;;;;;;9.10;5.00;;;;;;;18.84;62.60;101333.33;107981;1281;73702;-85
2022/05/20 08:32:33;;;;;;;10.40;5.80;;;;;;;18.88;61.39;101331.54;107736;1281;71968;-83
2022/05/20 08:35:00;;;;;;;9.90;6.80;;;;;;;18.89;61.13;101330.98;107964;1281;72915;-84
2022/05/20 08:37:26;;;;;;;7.90;5.10;;;;;;;18.90;61.47;101324.89;107864;1281;60892;-84
2022/05/20 08:39:54;;;;;;;7.70;6.00;;;;;;;19.05;62.39;101327.71;107728;1281;60364;-83
2022/05/20 08:42:28;;;;;;;9.50;5.40;;;;;;;19.23;62.05;101329.34;107820;1280;74728;-82
2022/05/20 08:44:57;;;;;;;6.40;4.60;;;;;;;19.38;60.94;101328.09;108075;1281;72709;-81
2022/05/20 08:47:39;;;;;;;10.60;6.30;;;;;;;19.48;59.57;101322.13;108155;1280;72940;-82
2022/05/20 08:50:12;;;;;;;6.30;5.70;;;;;;;19.56;59.18;101318.55;108014;1279;63580;-83
2022/05/20 08:52:39;;;;;;;8.70;5.20;;;;;;;19.63;58.60;101313.20;107897;1281;61491;-83
2022/05/20 08:55:06;;;;;;;10.30;5.40;;;;;;;19.72;58.73;101311.58;107932;1281;74890;-83
2022/05/20 08:57:40;;;;;;;6.10;4.80;;;;;;;19.80;57.91;101316.45;108034;1281;71319;-84
2022/05/20 09:00:09;;;;;;;8.00;4.20;;;;;;;19.87;58.24;101317.36;107916;1281;75445;-83
2022/05/20 09:02:37;;;;;;;8.10;6.10;;;;;;;19.96;58.85;101316.05;107697;1280;373367;-83
2022/05/20 09:05:19;;;;;;;8.30;5.70;;;;;;;20.09;58.10;101316.16;108211;1280;60103;-82
2022/05/20 09:08:03;;;;;;;8.90;4.70;;;;;;;20.13;55.58;101316.27;107968;1280;75363;-84
2022/05/20 09:10:37;;;;;;;8.30;4.80;;;;;;;20.17;55.33;101309.35;108077;1281;73500;-83
2022/05/20 09:13:10;;;;;;;7.00;5.10;;;;;;;20.17;54.47;101308.83;107949;1281;73726;-83
2022/05/20 09:15:46;;;;;;;7.60;6.50;;;;;;;20.19;54.92;101309.46;108122;1281;62107;-84
2022/05/20 09:18:29;;;;;;;7.30;5.80;;;;;;;20.18;54.47;101309.80;108166;1279;61781;-81
2022/05/20 09:20:56;;;;;;;7.80;5.30;;;;;;;20.19;54.78;101300.92;108031;1281;75030;-81
2022/05/20 09:23:24;;;;;;;7.80;5.50;;;;;;;20.28;56.43;101291.36;108168;1280;71602;-81
2022/05/20 09:26:07;;;;;;;9.10;6.50;;;;;;;20.42;54.70;101287.02;108034;1280;74014;-81
2022/05/20 09:28:36;;;;;;;6.70;6.00;;;;;;;20.48;54.18;101285.13;107847;1281;62071;-82
2022/05/20 09:31:41;;;;;;;8.10;5.70;;;;;;;20.59;55.21;101278.88;108136;1281;60992;-82
2022/05/20 09:34:15;;;;;;;;;;;;;;;20.71;54.14;101280.21;108419;1281;75106;-82
2022/05/20 09:36:55;;;;;;;12.70;7.10;;;;;;;20.73;53.56;101273.71;108484;1280;71349;-82
2022/05/20 09:39:27;;;;;;;5.80;3.80;;;;;;;20.80;52.84;101262.64;108489;1280;72939;-82
2022/05/20 09:41:57;;;;;;;6.30;5.10;;;;;;;20.82;52.10;101257.30;108130;1279;61389;-81
2022/05/20 09:44:32;;;;;;;7.70;4.80;;;;;;;20.89;52.95;101255.73;107923;1279;60817;-82
2022/05/20 09:47:09;;;;;;;7.60;4.90;;;;;;;21.00;53.36;101250.48;108002;1281;74317;-82
2022/05/20 09:49:54;;;;;;;6.20;4.10;;;;;;;21.02;51.11;101246.16;108068;1279;71140;-81
2022/05/20 09:52:34;;;;;;;4.00;3.00;;;;;;;21.05;50.66;101245.88;108016;1280;74411;-81
2022/05/20 09:55:05;;;;;;;6.90;4.40;;;;;;;21.14;50.33;101240.00;108049;1279;60522;-81
2022/05/20 09:57:42;;;;;;;7.30;3.90;;;;;;;21.20;50.25;101235.27;108005;1280;61243;-83
2022/05/20 10:00:17;;;;;;;3.90;3.30;;;;;;;21.30;50.93;101226.66;107752;1281;76474;-83
2022/05/20 10:02:59;;;;;;;6.20;4.90;;;;;;;21.51;51.49;101218.86;107724;1280;71742;-83
2022/05/20 10:05:41;;;;;;;6.60;5.90;;;;;;;21.77;51.43;101214.85;108074;1279;75574;-84
2022/05/20 10:08:17;;;;;;;5.90;4.70;;;;;;;21.99;51.49;101211.27;107839;1281;62185;-84
2022/05/20 10:10:57;;;;;;;6.30;4.70;;;;;;;22.16;50.09;101207.14;107933;1279;63963;-83
2022/05/20 10:13:27;;;;;;;8.00;4.60;;;;;;;22.17;48.37;101203.30;107900;1281;75321;-83
2022/05/20 10:16:09;;;;;;;9.10;6.10;;;;;;;22.17;48.03;101194.61;107903;1281;71447;-83
2022/05/20 10:19:11;;;;;;;6.70;4.10;;;;;;;22.23;48.45;101188.37;108029;1280;72678;-83
2022/05/20 10:21:54;;;;;;;5.10;3.60;;;;;;;22.38;48.02;101183.59;108423;1279;60403;-83
2022/05/20 10:24:45;;;;;;;4.90;3.20;;;;;;;22.38;46.02;101178.95;108425;1279;59598;-83
2022/05/20 10:27:21;;;;;;;5.30;3.90;;;;;;;22.50;46.61;101174.95;108055;1281;74922;-83
2022/05/20 10:33:05;;;;;;;4.90;4.40;;;;;;;22.75;47.14;101162.07;107943;1281;72969;-81
2022/05/20 10:36:02;;;;;;;8.20;4.60;;;;;;;22.86;47.28;101152.84;107706;1281;61892;-82
2022/05/20 10:39:08;;;;;;;6.10;3.50;;;;;;;23.04;47.86;101148.56;107991;1279;64275;-82
2022/05/20 10:42:49;;;;;;;6.80;4.80;;;;;;;23.18;47.28;101149.58;107924;1279;76634;-82
2022/05/20 10:48:36;;;;;;;5.80;4.40;;;;;;;23.50;45.72;101156.16;107967;1281;74015;-82
2022/05/20 10:51:40;;;;;;;7.70;3.80;;;;;;;23.72;44.68;101157.65;107941;1281;62304;-83
2022/05/20 10:54:34;;;;;;;6.00;4.80;;;;;;;23.77;43.66;101158.76;107934;1280;61940;-83
2022/05/20 10:57:15;;;;;;;4.50;3.60;;;;;;;23.80;43.74;101152.14;107857;1279;76093;-82
2022/05/20 11:00:18;;;;;;;6.40;4.50;;;;;;;23.85;43.07;101151.60;107962;1278;71498;-82
2022/05/20 11:03:03;;;;;;;3.70;3.10;;;;;;;23.91;43.45;101158.60;107943;1279;73923;-83
2022/05/20 11:05:54;;;;;;;7.40;4.70;;;;;;;23.92;44.19;101164.73;108112;1279;60606;-82
2022/05/20 11:08:38;;;;;;;8.00;4.60;;;;;;;23.92;43.60;101164.73;108452;1279;60291;-83
2022/05/20 11:12:01;;;;;;;7.50;5.20;;;;;;;24.02;43.30;101162.04;108330;1281;75091;-81
2022/05/20 11:14:48;;;;;;;6.20;3.70;;;;;;;24.24;43.64;101144.45;107577;1285;71523;-79
2022/05/20 11:17:31;;;;;;;5.40;3.30;;;;;;;24.53;43.08;101135.90;107493;1285;72964;-80
2022/05/20 11:20:16;;;;;;;5.50;2.90;;;;;;;24.78;42.01;101127.71;107962;1280;59692;-80
2022/05/20 11:22:42;;;;;;;;;;;;;;;25.08;41.60;101124.23;108081;1279;60827;-81
2022/05/20 11:25:21;;;;;;;5.20;4.20;;;;;;;25.04;42.09;101110.69;108099;1279;59421;-82
2022/05/20 11:27:57;;;;;;;6.90;3.40;;;;;;;24.97;42.09;101106.90;107733;1280;71398;-81
2022/05/20 11:30:35;;;;;;;5.40;4.90;;;;;;;24.80;41.53;101095.77;108106;1279;72919;-81
2022/05/20 11:33:31;;;;;;;7.80;4.40;;;;;;;24.66;41.60;101094.69;108057;1279;61017;-81
2022/05/20 11:36:19;;;;;;;4.20;3.20;;;;;;;24.66;42.57;101086.82;108207;1279;60539;-81
2022/05/20 11:39:12;;;;;;;6.80;4.60;;;;;;;24.94;42.35;101087.02;107978;1281;73951;-83
2022/05/20 11:41:47;;;;;;;5.30;4.00;;;;;;;25.20;41.16;101085.88;107889;1279;71284;-81
2022/05/20 11:44:46;;;;;;;6.70;5.40;;;;;;;25.41;41.44;101080.30;108021;1279;73657;-82
2022/05/20 11:47:31;;;;;;;7.40;4.20;;;;;;;25.60;41.26;101076.36;108337;1279;61632;-81
2022/05/20 11:50:06;;;;;;;8.60;4.80;;;;;;;25.60;41.08;101070.27;108310;1279;61407;-82
2022/05/20 11:52:47;;;;;;;4.70;3.20;;;;;;;25.49;40.61;101062.80;108289;1279;74789;-82
2022/05/20 11:55:36;;;;;;;5.10;2.90;;;;;;;25.37;40.54;101055.67;108104;1279;72460;-82
2022/05/20 11:58:06;;;;;;;5.70;3.80;;;;;;;25.22;40.51;101051.42;108244;1279;72936;-82
2022/05/20 12:00:39;;;;;;;6.00;3.80;;;;;;;25.23;40.81;101038.66;107627;1279;61049;-82
2022/05/20 12:03:19;;;;;;;4.40;2.70;;;;;;;25.32;40.61;101039.45;107891;1279;59577;-82
2022/05/20 12:05:49;;;;;;;6.40;3.60;;;;;;;25.44;40.79;101028.32;108001;1279;75123;-81
2022/05/20 12:08:37;;;;;;;6.00;3.80;;;;;;;25.54;40.21;101025.04;107993;1279;72550;-82
2022/05/20 12:11:30;;;;;;;5.40;3.70;;;;;;;25.78;40.00;101018.48;107920;1279;74023;-83
2022/05/20 12:14:14;;;;;;;7.60;3.10;;;;;;;26.22;39.13;101017.50;107680;1280;62052;-83
2022/05/20 12:17:02;;;;;;;5.40;3.60;;;;;;;26.72;38.68;101007.09;107908;1279;60766;-83
2022/05/20 12:26:00;;;;;;;4.00;3.00;;;;;;;28.44;36.54;100967.41;108063;1279;73586;-83
2022/05/20 12:28:29;;;;;;;3.10;2.30;;;;;;;28.98;35.83;100968.91;107980;1279;60598;-83
2022/05/20 12:31:24;;;;;;;3.00;2.40;;;;;;;29.39;34.80;100965.93;108005;1279;60528;-83
2022/05/20 12:33:57;;;;;;;3.50;2.10;;;;;;;29.53;34.44;100958.75;107961;1280;75259;-84
2022/05/20 12:36:27;;;;;;;5.30;3.00;;;;;;;29.69;33.46;100951.77;107990;1279;71454;-84
2022/05/20 12:39:14;;;;;;;5.70;3.70;;;;;;;29.91;32.84;100949.86;107978;1279;72937;-84
2022/05/20 12:41:48;;;;;;;5.60;3.80;;;;;;;29.82;33.11;100946.88;107964;1279;61899;-84
2022/05/20 12:44:21;;;;;;;6.60;3.70;;;;;;;29.62;33.28;100943.41;108066;1279;62049;-84
2022/05/20 12:47:13;;;;;;;3.20;2.30;;;;;;;29.31;34.21;100938.94;108075;1279;76356;-84